Time;durP1;ratioP1;P1;durP2;ratioP2;P2;SDS_P1;SDS_P2;PMS_P1;PMS_P2;Temp;Humidity;BMP_temperature;BMP_pressure;BME280_temperature;BME280_humidity;BME280_pressure;Samples;Min_cycle;Max_cycle;Signal;HPM_P1;HPM_P2
2022/10/19 00:01:17;;;;;;;13.47;6.90;;;;;;;13.57;100.00;99063.53;5016292;28;20265;-71
2022/10/19 00:03:47;;;;;;;15.03;7.20;;;;;;;13.56;100.00;99060.03;5017161;28;20217;-71
2022/10/19 00:06:24;;;;;;;8.43;6.50;;;;;;;13.53;100.00;99054.28;5017071;28;20302;-71
2022/10/19 00:08:54;;;;;;;8.50;7.00;;;;;;;13.48;100.00;99054.91;5017087;28;20187;-72
2022/10/19 00:11:22;;;;;;;8.00;7.20;;;;;;;13.43;100.00;99048.59;5016971;28;20237;-71
2022/10/19 00:13:49;;;;;;;7.80;7.10;;;;;;;13.39;100.00;99050.84;5016711;28;20249;-71
2022/10/19 00:16:17;;;;;;;7.87;7.00;;;;;;;13.42;100.00;99053.09;5016527;28;20666;-71
2022/10/19 00:18:44;;;;;;;8.57;6.87;;;;;;;13.41;100.00;99059.47;5016931;28;20202;-71
2022/10/19 00:21:14;;;;;;;7.70;6.90;;;;;;;13.39;100.00;99053.50;5016775;28;20226;-71
2022/10/19 00:23:41;;;;;;;8.27;7.47;;;;;;;13.41;100.00;99046.13;5016357;28;20226;-71
2022/10/19 00:26:07;;;;;;;10.53;7.97;;;;;;;13.44;100.00;99047.56;5016774;28;20285;-71
2022/10/19 00:28:34;;;;;;;11.17;7.47;;;;;;;13.33;100.00;99054.38;5016603;28;20576;-71
2022/10/19 00:31:16;;;;;;;11.60;7.80;;;;;;;13.39;100.00;99058.84;5016610;28;20226;-71
2022/10/19 00:33:45;;;;;;;11.80;8.07;;;;;;;13.35;100.00;99054.16;5016316;28;20568;-71
2022/10/19 00:36:17;;;;;;;11.20;8.07;;;;;;;13.52;100.00;99056.13;5016291;28;20210;-71
2022/10/19 00:38:44;;;;;;;10.23;8.23;;;;;;;13.52;100.00;99058.00;5016521;28;20582;-71
2022/10/19 00:41:10;;;;;;;12.53;8.90;;;;;;;13.66;100.00;99052.34;5016011;28;20569;-71
2022/10/19 00:43:57;;;;;;;11.33;8.00;;;;;;;13.63;100.00;99060.00;5016378;28;20227;-71
2022/10/19 00:46:25;;;;;;;11.90;7.77;;;;;;;13.60;100.00;99047.88;5016353;28;20293;-71
2022/10/19 00:48:57;;;;;;;12.73;7.83;;;;;;;13.52;100.00;99058.00;5016299;28;20213;-71
2022/10/19 00:51:24;;;;;;;11.77;7.53;;;;;;;13.48;100.00;99057.59;5015940;28;20588;-71
2022/10/19 00:53:50;;;;;;;10.23;7.67;;;;;;;13.37;100.00;99057.44;5014930;28;20206;-71
2022/10/19 00:56:17;;;;;;;12.43;8.90;;;;;;;13.48;100.00;99057.59;5015872;28;20216;-71
2022/10/19 00:58:44;;;;;;;8.23;7.13;;;;;;;13.45;100.00;99062.53;5015888;28;20670;-71
2022/10/19 01:01:18;;;;;;;8.80;7.70;;;;;;;13.52;100.00;99069.50;5015995;28;20222;-71
2022/10/19 01:03:46;;;;;;;8.67;7.43;;;;;;;13.52;100.00;99068.69;5015728;28;20677;-71
2022/10/19 01:06:14;;;;;;;10.30;7.30;;;;;;;13.63;100.00;99063.50;5014825;28;20214;-71
2022/10/19 01:08:41;;;;;;;9.60;7.23;;;;;;;13.65;100.00;99056.06;5015644;28;20689;-71
2022/10/19 01:11:26;;;;;;;9.93;7.93;;;;;;;13.64;100.00;99058.94;5015781;28;20226;-71
2022/10/19 01:14:03;;;;;;;9.27;7.53;;;;;;;13.67;100.00;99059.34;5015603;28;20635;-71
2022/10/19 01:16:48;;;;;;;10.30;7.37;;;;;;;13.71;100.00;99051.72;5014344;28;20233;-71
2022/10/19 01:19:58;;;;;;;8.03;7.23;;;;;;;13.73;100.00;99047.81;5015894;28;20202;-71
2022/10/19 01:23:02;;;;;;;8.03;7.17;;;;;;;13.81;100.00;99052.06;5014469;28;20195;-71
2022/10/19 01:26:05;;;;;;;10.33;7.80;;;;;;;13.85;100.00;99046.09;5016364;28;20210;-71
2022/10/19 01:28:47;;;;;;;8.47;7.57;;;;;;;13.91;100.00;99050.56;5015515;28;20209;-71
2022/10/19 01:31:41;;;;;;;9.40;7.73;;;;;;;13.96;100.00;99050.72;5015508;28;20230;-71
2022/10/19 01:34:28;;;;;;;11.10;7.83;;;;;;;14.01;100.00;99045.56;5014255;28;20194;-71
2022/10/19 01:37:17;;;;;;;10.27;8.87;;;;;;;14.05;100.00;99040.59;5015345;28;20198;-71
2022/10/19 01:40:04;;;;;;;11.63;8.67;;;;;;;14.06;100.00;99042.25;5014832;28;20187;-71
2022/10/19 01:42:44;;;;;;;10.97;8.87;;;;;;;14.09;100.00;99037.28;5015259;28;20191;-71
2022/10/19 01:45:26;;;;;;;9.93;7.77;;;;;;;14.06;100.00;99035.03;5014072;28;20642;-71
2022/10/19 01:48:00;;;;;;;10.83;9.07;;;;;;;14.06;100.00;99029.69;5015276;28;20195;-71
2022/10/19 01:50:33;;;;;;;10.63;8.47;;;;;;;14.08;100.00;99024.94;5015171;28;20237;-71
2022/10/19 01:52:59;;;;;;;12.27;8.47;;;;;;;14.12;100.00;99028.81;5014905;28;20631;-72
2022/10/19 01:55:27;;;;;;;9.43;8.37;;;;;;;14.12;100.00;99023.47;5013637;28;20217;-71
2022/10/19 01:58:00;;;;;;;10.87;7.90;;;;;;;14.13;100.00;99018.94;5015004;28;20206;-71
2022/10/19 02:00:28;;;;;;;10.80;8.37;;;;;;;14.09;100.00;99015.88;5013853;28;20226;-71
2022/10/19 02:02:55;;;;;;;10.97;8.27;;;;;;;14.09;100.00;99023.91;5014926;28;20249;-71
2022/10/19 02:05:27;;;;;;;9.47;7.97;;;;;;;14.22;100.00;99021.16;5014909;28;20254;-71
2022/10/19 02:07:59;;;;;;;12.40;8.97;;;;;;;14.21;100.00;99021.38;5014898;28;20187;-71
2022/10/19 02:10:27;;;;;;;17.70;10.50;;;;;;;14.20;100.00;99017.03;5014839;28;20590;-71
2022/10/19 02:12:55;;;;;;;25.03;12.47;;;;;;;14.19;100.00;99015.38;5013658;28;20202;-71
2022/10/19 02:15:25;;;;;;;24.07;12.80;;;;;;;14.21;100.00;99005.31;5014303;28;20219;-71
2022/10/19 02:17:55;;;;;;;22.03;10.93;;;;;;;14.20;100.00;99012.50;5014921;28;20206;-71
2022/10/19 02:20:23;;;;;;;25.87;13.37;;;;;;;14.18;100.00;99016.41;5014541;28;20226;-71
2022/10/19 02:22:49;;;;;;;25.97;12.53;;;;;;;14.16;100.00;99005.94;5013921;28;20228;-71
2022/10/19 02:25:16;;;;;;;26.50;12.87;;;;;;;14.15;100.00;98996.28;5014360;28;20305;-71
2022/10/19 02:27:43;;;;;;;32.30;14.13;;;;;;;14.15;100.00;99006.19;5014443;28;20213;-72
2022/10/19 02:30:16;;;;;;;25.97;13.43;;;;;;;14.16;100.00;98995.22;5014426;28;20226;-71
2022/10/19 02:32:44;;;;;;;29.50;13.27;;;;;;;14.16;100.00;98992.56;5014035;28;20198;-71
2022/10/19 02:35:12;;;;;;;36.93;14.13;;;;;;;14.14;100.00;98994.66;5014042;28;20216;-71
2022/10/19 02:37:39;;;;;;;39.30;16.17;;;;;;;14.11;100.00;98994.28;5013959;28;20670;-71
2022/10/19 02:40:07;;;;;;;48.63;16.83;;;;;;;14.12;100.00;98986.03;5012957;28;20227;-71
2022/10/19 02:42:39;;;;;;;40.13;16.87;;;;;;;14.14;100.00;98988.47;5014064;28;20301;-71
2022/10/19 02:45:34;;;;;;;51.00;19.40;;;;;;;14.11;100.00;98983.56;5013331;28;20195;-71
2022/10/19 02:48:07;;;;;;;111.03;21.57;;;;;;;14.10;100.00;98988.09;5010750;28;20242;-71
2022/10/19 02:50:34;;;;;;;114.90;23.53;;;;;;;14.11;100.00;98987.06;5013194;28;20231;-71
2022/10/19 02:53:00;;;;;;;149.37;25.80;;;;;;;14.19;100.00;98991.31;5013985;28;20224;-71
2022/10/19 02:55:27;;;;;;;176.67;27.83;;;;;;;14.27;100.00;98989.22;5013917;28;20209;-71
2022/10/19 02:57:54;;;;;;;104.50;25.43;;;;;;;14.25;100.00;98985.94;5013979;28;20218;-71
2022/10/19 03:00:20;;;;;;;57.20;21.53;;;;;;;14.21;100.00;98979.41;5013576;28;20231;-71
2022/10/19 03:02:47;;;;;;;36.87;16.60;;;;;;;14.11;100.00;98981.69;5013521;28;20218;-71
2022/10/19 03:05:13;;;;;;;38.70;16.90;;;;;;;14.08;100.00;98973.31;5013738;28;20206;-72
2022/10/19 03:07:41;;;;;;;48.80;20.30;;;;;;;14.15;100.00;98974.09;5013863;28;20214;-71
2022/10/19 03:10:07;;;;;;;52.00;21.17;;;;;;;14.18;100.00;98978.97;5013708;28;20257;-71
2022/10/19 03:12:34;;;;;;;52.77;20.83;;;;;;;14.19;100.00;98976.09;5013702;28;20207;-71
2022/10/19 03:15:00;;;;;;;58.23;22.63;;;;;;;14.20;100.00;98969.72;5013358;28;20210;-71
2022/10/19 03:17:26;;;;;;;54.97;21.73;;;;;;;14.20;100.00;98972.41;5013259;28;20214;-71
2022/10/19 03:19:53;;;;;;;56.53;22.80;;;;;;;14.21;100.00;98970.56;5013385;28;20234;-71
2022/10/19 03:22:19;;;;;;;54.93;23.17;;;;;;;14.21;100.00;98962.53;5013481;28;20217;-71
2022/10/19 03:24:45;;;;;;;58.90;23.13;;;;;;;14.26;100.00;98968.88;5013578;28;20226;-71
2022/10/19 03:27:13;;;;;;;57.50;23.00;;;;;;;14.27;100.00;98961.66;5013579;28;20251;-71
2022/10/19 03:29:39;;;;;;;68.37;23.87;;;;;;;14.23;100.00;98966.63;5013128;28;20704;-71
2022/10/19 03:32:06;;;;;;;68.77;23.23;;;;;;;14.19;100.00;98965.38;5013099;28;20674;-71
2022/10/19 03:34:32;;;;;;;54.00;23.37;;;;;;;14.22;100.00;98961.50;5015655;28;20202;-71
2022/10/19 03:36:59;;;;;;;56.23;22.10;;;;;;;14.22;100.00;98959.66;5017516;28;20213;-71
2022/10/19 03:39:25;;;;;;;68.10;24.17;;;;;;;14.21;100.00;98962.53;5017127;28;20214;-72
2022/10/19 03:41:52;;;;;;;55.20;22.50;;;;;;;14.25;100.00;98963.72;5017340;28;20725;-71
2022/10/19 03:44:18;;;;;;;59.00;22.30;;;;;;;14.22;100.00;98970.34;5016916;28;20222;-71
2022/10/19 03:46:44;;;;;;;61.50;23.30;;;;;;;14.23;100.00;98955.91;5016843;28;20214;-71
2022/10/19 03:49:11;;;;;;;84.97;24.83;;;;;;;14.27;100.00;98956.28;5017212;28;20240;-71
2022/10/19 03:51:38;;;;;;;57.17;21.43;;;;;;;14.39;100.00;98958.00;5017271;28;20233;-71
2022/10/19 03:54:07;;;;;;;52.73;22.27;;;;;;;14.30;100.00;98961.22;5016977;28;20207;-71
2022/10/19 03:56:35;;;;;;;55.13;22.90;;;;;;;14.23;100.00;98950.56;5017799;28;20210;-71
2022/10/19 03:59:04;;;;;;;54.33;22.57;;;;;;;14.24;100.00;98954.88;5016656;28;20677;-71
2022/10/19 04:01:33;;;;;;;49.57;21.63;;;;;;;14.23;100.00;98957.75;5017109;28;20223;-71
2022/10/19 04:04:02;;;;;;;53.27;22.57;;;;;;;14.23;100.00;98947.06;5016904;28;20222;-71
2022/10/19 04:06:30;;;;;;;54.67;23.43;;;;;;;14.21;100.00;98951.84;5016511;28;20207;-71
2022/10/19 04:08:58;;;;;;;55.93;23.90;;;;;;;14.26;100.00;98957.34;5016617;28;20206;-71
2022/10/19 04:11:27;;;;;;;48.67;23.90;;;;;;;14.26;100.00;98960.84;5016612;28;20713;-72
2022/10/19 04:13:55;;;;;;;47.03;23.23;;;;;;;14.23;100.00;98953.25;5016920;28;20203;-71
2022/10/19 04:16:23;;;;;;;47.07;23.40;;;;;;;14.24;100.00;98952.19;5016703;28;20232;-72
2022/10/19 04:18:49;;;;;;;50.43;22.97;;;;;;;14.23;100.00;98950.56;5016728;28;20213;-71
2022/10/19 04:21:26;;;;;;;50.40;24.60;;;;;;;14.23;100.00;98953.25;5016679;28;20226;-71
2022/10/19 04:23:57;;;;;;;47.80;23.87;;;;;;;14.25;100.00;98956.50;5016326;28;20226;-71
2022/10/19 04:26:23;;;;;;;35.47;21.40;;;;;;;14.28;100.00;98956.06;5016558;28;20197;-71
2022/10/19 04:28:50;;;;;;;36.60;21.53;;;;;;;14.24;100.00;98952.19;5016653;28;20214;-71
2022/10/19 04:31:16;;;;;;;37.77;21.90;;;;;;;14.18;100.00;98952.22;5016403;28;20248;-71
2022/10/19 04:33:42;;;;;;;39.87;21.60;;;;;;;14.18;100.00;98952.22;5016390;28;20210;-71
2022/10/19 04:36:11;;;;;;;44.30;22.90;;;;;;;14.23;100.00;98955.09;5016070;28;20203;-71
2022/10/19 04:38:38;;;;;;;38.37;22.13;;;;;;;14.19;100.00;98954.69;5015943;28;20218;-71
2022/10/19 04:41:10;;;;;;;43.17;23.60;;;;;;;14.17;100.00;98962.13;5015690;28;20231;-71
2022/10/19 04:43:37;;;;;;;41.80;23.83;;;;;;;14.14;100.00;98962.56;5015792;28;20221;-71
2022/10/19 04:46:10;;;;;;;35.33;22.90;;;;;;;14.17;100.00;98962.13;5015012;28;20214;-71
2022/10/19 04:48:38;;;;;;;36.03;22.73;;;;;;;14.15;100.00;98953.50;5015800;28;20681;-71
2022/10/19 04:51:05;;;;;;;36.23;23.00;;;;;;;14.15;100.00;98953.50;5015888;28;20222;-71
2022/10/19 04:53:32;;;;;;;31.10;20.13;;;;;;;14.14;100.00;98956.38;5016106;28;20225;-71
2022/10/19 04:55:59;;;;;;;30.87;20.97;;;;;;;14.10;100.00;98956.00;5015993;28;20202;-71
2022/10/19 04:58:25;;;;;;;33.20;19.83;;;;;;;14.13;100.00;98950.22;5015781;28;20237;-72
2022/10/19 05:00:52;;;;;;;27.67;20.17;;;;;;;14.10;100.00;98950.66;5015337;28;20227;-71
2022/10/19 05:03:18;;;;;;;31.10;20.67;;;;;;;14.08;100.00;98952.75;5015446;28;20666;-71
2022/10/19 05:05:45;;;;;;;37.40;22.23;;;;;;;14.14;100.00;98961.72;5015512;28;20337;-72
2022/10/19 05:08:11;;;;;;;29.53;20.70;;;;;;;14.13;100.00;98955.59;5015461;28;20203;-71
2022/10/19 05:10:38;;;;;;;30.50;19.40;;;;;;;14.25;100.00;98961.84;5015549;28;20234;-71
2022/10/19 05:13:05;;;;;;;27.73;18.27;;;;;;;14.24;100.00;98954.88;5015618;28;20206;-72
2022/10/19 05:15:31;;;;;;;25.67;19.67;;;;;;;14.21;100.00;98952.66;5015486;28;20206;-71
2022/10/19 05:17:58;;;;;;;27.87;18.97;;;;;;;14.20;100.00;98959.03;5015272;28;20218;-71
2022/10/19 05:20:24;;;;;;;29.30;19.20;;;;;;;14.12;100.00;98961.97;5015316;28;20226;-71
2022/10/19 05:22:51;;;;;;;25.93;18.97;;;;;;;14.13;100.00;98955.59;5015012;28;20210;-71
2022/10/19 05:25:17;;;;;;;24.87;18.00;;;;;;;14.10;100.00;98958.69;5014682;28;20226;-71
2022/10/19 05:27:44;;;;;;;23.97;17.90;;;;;;;14.17;100.00;98956.78;5015042;28;20210;-71
2022/10/19 05:30:13;;;;;;;24.53;18.33;;;;;;;14.12;100.00;98955.78;5014948;28;20227;-71
2022/10/19 05:32:39;;;;;;;28.23;16.83;;;;;;;14.12;100.00;98959.28;5014655;28;20670;-71
2022/10/19 05:35:06;;;;;;;21.23;15.83;;;;;;;14.04;100.00;98951.56;5014302;28;20577;-71
2022/10/19 05:37:32;;;;;;;21.73;17.80;;;;;;;14.03;100.00;98941.06;5014512;28;20214;-71
2022/10/19 05:39:58;;;;;;;20.57;16.83;;;;;;;14.02;100.00;98952.81;5014557;28;20249;-71
2022/10/19 05:42:25;;;;;;;20.43;17.70;;;;;;;14.01;100.00;98957.31;5014636;28;20210;-71
2022/10/19 05:44:51;;;;;;;19.40;17.30;;;;;;;14.03;100.00;98949.09;5014709;28;20230;-71
2022/10/19 05:47:17;;;;;;;20.60;18.37;;;;;;;14.00;100.00;98953.00;5014449;28;20210;-71
2022/10/19 05:49:44;;;;;;;20.30;17.20;;;;;;;13.99;100.00;98954.06;5014293;28;20297;-71
2022/10/19 05:52:10;;;;;;;19.57;16.97;;;;;;;13.99;100.00;98951.38;5014171;28;20202;-71
2022/10/19 05:54:37;;;;;;;21.63;16.77;;;;;;;13.97;100.00;98956.13;5014107;28;20218;-71
2022/10/19 05:57:04;;;;;;;18.63;16.03;;;;;;;14.02;100.00;98953.59;5013621;28;20210;-71
2022/10/19 05:59:30;;;;;;;21.13;17.13;;;;;;;13.95;100.00;98952.84;5014098;28;20207;-71
2022/10/19 06:01:57;;;;;;;20.03;17.80;;;;;;;13.98;100.00;98947.06;5014081;28;20226;-71
2022/10/19 06:04:24;;;;;;;19.27;17.27;;;;;;;14.02;100.00;98956.28;5014496;28;20237;-71
2022/10/19 06:06:50;;;;;;;21.00;16.93;;;;;;;14.03;100.00;98954.44;5014478;28;20301;-71
2022/10/19 06:09:16;;;;;;;18.97;16.77;;;;;;;14.01;100.00;98961.84;5014215;28;20207;-71
2022/10/19 06:11:43;;;;;;;20.57;18.17;;;;;;;14.02;100.00;98958.94;5014461;28;20226;-71
2022/10/19 06:14:15;;;;;;;20.57;17.97;;;;;;;14.02;100.00;98966.19;5013905;28;20237;-71
2022/10/19 06:16:42;;;;;;;24.50;18.83;;;;;;;13.99;100.00;98961.25;5014259;28;20211;-71
2022/10/19 06:19:08;;;;;;;22.50;18.03;;;;;;;14.03;100.00;98957.09;5014185;28;20203;-71
2022/10/19 06:21:35;;;;;;;21.87;17.70;;;;;;;14.05;100.00;98963.88;5013758;28;20233;-71
2022/10/19 06:24:04;;;;;;;21.20;18.30;;;;;;;14.05;100.00;98960.38;5013754;28;20232;-71
2022/10/19 06:26:32;;;;;;;20.73;17.47;;;;;;;14.11;100.00;98962.97;5013856;28;20614;-71
2022/10/19 06:29:00;;;;;;;21.77;17.20;;;;;;;14.12;100.00;98959.28;5014355;28;20207;-71
2022/10/19 06:31:28;;;;;;;18.63;16.73;;;;;;;14.19;100.00;98961.88;5013732;28;20226;-71
2022/10/19 06:33:54;;;;;;;16.73;13.07;;;;;;;14.11;100.00;98975.56;5014600;28;20210;-71
2022/10/19 06:36:23;;;;;;;16.87;12.23;;;;;;;14.01;100.00;98970.69;5013516;28;20689;-71
2022/10/19 06:38:52;;;;;;;13.47;12.07;;;;;;;14.03;100.00;98978.50;5013551;28;20210;-71
2022/10/19 06:41:18;;;;;;;12.77;11.40;;;;;;;14.01;100.00;98970.69;5013714;28;20227;-71
2022/10/19 06:43:52;;;;;;;13.37;10.83;;;;;;;14.09;100.00;98975.78;5013322;28;20544;-72
2022/10/19 06:46:22;;;;;;;13.17;11.87;;;;;;;14.01;100.00;98981.38;5013846;28;20190;-71
2022/10/19 06:48:57;;;;;;;14.73;11.40;;;;;;;13.88;100.00;98973.47;5013865;28;20556;-71
2022/10/19 06:51:25;;;;;;;13.37;12.07;;;;;;;14.01;100.00;98981.38;5013481;28;20736;-71
2022/10/19 06:53:52;;;;;;;12.73;11.40;;;;;;;13.93;100.00;98980.84;5013435;28;20728;-71
2022/10/19 06:56:19;;;;;;;14.00;12.40;;;;;;;13.97;100.00;98976.72;5013625;28;20216;-71
2022/10/19 06:58:46;;;;;;;14.13;12.73;;;;;;;13.99;100.00;98983.47;5013781;28;20228;-72
2022/10/19 07:01:13;;;;;;;13.50;12.17;;;;;;;14.04;100.00;98978.28;5013585;28;20233;-71
2022/10/19 07:03:42;;;;;;;12.27;11.00;;;;;;;14.07;100.00;98982.38;5013522;28;20215;-71
2022/10/19 07:06:10;;;;;;;13.30;11.90;;;;;;;14.05;100.00;98977.25;5013598;28;20254;-71
2022/10/19 07:08:38;;;;;;;12.93;11.57;;;;;;;14.12;100.00;98980.69;5014050;28;20206;-71
2022/10/19 07:11:07;;;;;;;11.97;10.77;;;;;;;14.16;100.00;98981.88;5013458;28;20663;-71
2022/10/19 07:13:34;;;;;;;11.60;10.60;;;;;;;14.12;100.00;98982.53;5013530;28;20213;-72
2022/10/19 07:16:06;;;;;;;12.17;11.00;;;;;;;14.29;100.00;98986.34;5013407;28;20221;-72
2022/10/19 07:18:35;;;;;;;11.33;10.23;;;;;;;14.33;100.00;98982.97;5013534;28;20195;-71
2022/10/19 07:21:04;;;;;;;15.17;13.13;;;;;;;14.37;100.00;98978.81;5013291;28;20227;-71
2022/10/19 07:23:32;;;;;;;22.13;16.20;;;;;;;14.39;100.00;98981.28;5013090;28;20206;-71
2022/10/19 07:26:03;;;;;;;19.50;15.80;;;;;;;14.40;100.00;98973.06;5012862;28;20226;-71
2022/10/19 07:28:30;;;;;;;19.93;15.90;;;;;;;14.44;100.00;98976.09;5013174;28;20552;-71
2022/10/19 07:30:57;;;;;;;20.10;18.00;;;;;;;14.47;100.00;98984.47;5013303;28;20233;-71
2022/10/19 07:33:23;;;;;;;22.57;17.87;;;;;;;14.56;100.00;98985.03;5013628;28;20210;-71
2022/10/19 07:35:50;;;;;;;21.60;16.73;;;;;;;14.58;100.00;98981.09;5013160;28;20217;-71
2022/10/19 07:38:16;;;;;;;21.00;17.63;;;;;;;14.73;100.00;98978.88;5013132;28;20661;-71
2022/10/19 07:40:43;;;;;;;19.30;16.10;;;;;;;14.74;100.00;98985.06;5013329;28;20227;-71
2022/10/19 07:43:09;;;;;;;18.87;16.30;;;;;;;14.82;100.00;98976.69;5013342;28;20208;-71
2022/10/19 07:45:35;;;;;;;21.80;16.20;;;;;;;14.72;100.00;98987.94;5013284;28;20230;-71
2022/10/19 07:48:02;;;;;;;21.40;16.63;;;;;;;14.79;100.00;98977.97;5012906;28;20210;-71
2022/10/19 07:50:28;;;;;;;18.33;15.60;;;;;;;14.87;100.00;98975.00;5012961;28;20237;-71
2022/10/19 07:52:54;;;;;;;16.77;15.13;;;;;;;14.92;100.00;98982.38;5013111;28;20573;-71
2022/10/19 07:55:21;;;;;;;16.50;14.80;;;;;;;14.93;100.00;98982.13;5013173;28;20658;-71
2022/10/19 07:57:49;;;;;;;15.80;14.20;;;;;;;14.93;100.00;98984.81;5013461;28;20658;-71
2022/10/19 08:00:16;;;;;;;15.47;13.93;;;;;;;15.03;100.00;98984.28;5012698;28;20232;-71
2022/10/19 08:02:44;;;;;;;14.47;13.03;;;;;;;14.99;100.00;98980.41;5013176;28;20207;-72
2022/10/19 08:05:11;;;;;;;18.73;12.67;;;;;;;15.02;100.00;98979.97;5012809;28;20689;-71
2022/10/19 08:07:37;;;;;;;14.30;12.07;;;;;;;15.01;100.00;98979.16;5013039;28;20207;-71
2022/10/19 08:10:04;;;;;;;14.57;12.83;;;;;;;15.21;100.00;98974.38;5012782;28;20237;-71
2022/10/19 08:12:31;;;;;;;14.33;12.00;;;;;;;15.28;100.00;98977.78;5012872;28;20214;-71
2022/10/19 08:14:57;;;;;;;12.80;11.50;;;;;;;15.43;100.00;98977.41;5012898;28;20218;-72
2022/10/19 08:17:23;;;;;;;13.17;11.77;;;;;;;15.49;100.00;98985.34;5012777;28;20194;-71
2022/10/19 08:19:50;;;;;;;14.93;11.93;;;;;;;15.55;100.00;98984.44;5012656;28;20213;-71
2022/10/19 08:22:16;;;;;;;14.13;11.40;;;;;;;15.65;100.00;98973.19;5015630;28;20213;-71
2022/10/19 08:24:42;;;;;;;15.60;11.60;;;;;;;15.64;100.00;98984.91;5016225;28;20229;-71
2022/10/19 08:27:09;;;;;;;17.60;11.97;;;;;;;15.56;100.00;98971.88;5016284;28;20684;-71
2022/10/19 08:29:35;;;;;;;13.23;11.07;;;;;;;15.60;100.00;98971.16;5016357;28;20232;-71
2022/10/19 08:32:01;;;;;;;13.37;11.00;;;;;;;15.60;100.00;98971.16;5016566;28;20213;-71
2022/10/19 08:34:28;;;;;;;13.47;11.27;;;;;;;15.48;100.00;98975.69;5016426;28;20207;-72
2022/10/19 08:36:54;;;;;;;12.00;10.83;;;;;;;15.54;100.00;98977.44;5015908;28;20210;-71
2022/10/19 08:39:21;;;;;;;16.33;11.07;;;;;;;15.47;100.00;98974.03;5016041;28;20218;-71
2022/10/19 08:42:04;;;;;;;13.07;10.63;;;;;;;15.65;100.00;98979.34;5016353;28;20233;-71
2022/10/19 08:44:42;;;;;;;13.47;10.70;;;;;;;15.57;100.00;98970.81;5016282;28;20198;-71
2022/10/19 08:47:35;;;;;;;11.93;10.47;;;;;;;15.47;100.00;98973.22;5016083;28;20210;-71
2022/10/19 08:50:03;;;;;;;14.93;10.10;;;;;;;15.55;100.00;98976.41;5016141;28;20223;-71
2022/10/19 08:52:33;;;;;;;13.13;9.83;;;;;;;15.64;100.00;98983.06;5016096;28;20206;-71
2022/10/19 08:55:03;;;;;;;10.30;9.30;;;;;;;15.62;100.00;98985.19;5015941;28;20234;-71
2022/10/19 08:58:00;;;;;;;11.30;9.00;;;;;;;15.60;100.00;98989.13;5016804;28;20193;-71
2022/10/19 09:00:38;;;;;;;10.10;9.17;;;;;;;15.66;100.00;98986.34;5016153;28;20235;-71
2022/10/19 09:03:46;;;;;;;10.20;9.10;;;;;;;15.58;100.00;98977.81;5015867;28;20198;-71
2022/10/19 09:06:31;;;;;;;9.57;8.67;;;;;;;15.54;100.00;98973.94;5015456;28;20567;-71
2022/10/19 09:08:58;;;;;;;9.50;8.37;;;;;;;15.72;100.00;98981.91;5015378;28;20692;-71
2022/10/19 09:11:30;;;;;;;11.43;8.67;;;;;;;15.34;100.00;98973.41;5015704;28;20222;-71
2022/10/19 09:14:22;;;;;;;8.40;7.63;;;;;;;15.43;100.00;98967.47;5015700;28;20199;-71
2022/10/19 09:16:49;;;;;;;8.87;7.97;;;;;;;15.44;100.00;98962.97;5015535;28;20215;-71
2022/10/19 09:19:24;;;;;;;10.13;7.40;;;;;;;15.43;100.00;98964.81;5015236;28;20221;-71
2022/10/19 09:21:56;;;;;;;10.33;6.93;;;;;;;15.46;100.00;98967.03;5015529;28;20222;-71
2022/10/19 09:24:49;;;;;;;10.90;7.00;;;;;;;15.49;100.00;98966.59;5015618;28;20251;-71
2022/10/19 09:27:38;;;;;;;9.47;7.83;;;;;;;15.48;100.00;98962.28;5015441;28;20195;-71
2022/10/19 09:30:15;;;;;;;8.37;7.17;;;;;;;15.48;100.00;98961.47;5015362;28;20343;-71
2022/10/19 09:32:42;;;;;;;7.77;6.97;;;;;;;15.65;100.00;98965.13;5015117;28;20190;-71
2022/10/19 09:35:36;;;;;;;7.57;6.77;;;;;;;15.54;100.00;98956.00;5013967;28;20221;-72
2022/10/19 09:38:05;;;;;;;9.13;7.30;;;;;;;15.55;100.00;98964.84;5014690;28;20565;-71
2022/10/19 09:40:31;;;;;;;10.17;6.60;;;;;;;15.51;100.00;98961.81;5014880;28;20732;-71
2022/10/19 09:43:02;;;;;;;8.33;6.57;;;;;;;15.54;100.00;98961.38;5015368;28;20214;-72
2022/10/19 09:45:34;;;;;;;6.87;6.17;;;;;;;15.81;100.00;98967.13;5014718;28;20570;-71
2022/10/19 09:48:03;;;;;;;7.87;5.47;;;;;;;16.02;100.00;98967.41;5015082;28;20209;-71
2022/10/19 09:50:31;;;;;;;9.73;6.03;;;;;;;15.94;100.00;98962.41;5014918;28;20333;-71
2022/10/19 09:53:00;;;;;;;5.93;5.00;;;;;;;16.03;100.00;98963.69;5014990;28;20211;-71
2022/10/19 09:55:28;;;;;;;6.17;5.50;;;;;;;15.78;100.00;98959.56;5014777;28;20234;-71
2022/10/19 09:58:14;;;;;;;6.53;5.40;;;;;;;15.89;100.00;98964.13;5014810;28;20211;-71
2022/10/19 10:00:53;;;;;;;6.13;4.57;;;;;;;15.78;100.00;98963.06;5013165;28;20586;-71
2022/10/19 10:03:38;;;;;;;5.43;4.40;;;;;;;15.79;100.00;98970.03;5013191;28;20195;-71
2022/10/19 10:06:10;;;;;;;7.00;4.87;;;;;;;15.81;100.00;98965.28;5014888;28;20666;-71
2022/10/19 10:08:39;;;;;;;4.33;3.93;;;;;;;15.63;100.00;98957.31;5014426;28;20222;-71
2022/10/19 10:11:23;;;;;;;5.60;4.17;;;;;;;15.77;100.00;98958.75;5013180;28;20236;-71
2022/10/19 10:13:52;;;;;;;5.57;4.03;;;;;;;15.74;100.00;98961.88;5014026;28;20638;-71
2022/10/19 10:16:22;;;;;;;4.23;3.83;;;;;;;15.76;100.00;98950.94;5014171;28;20210;-71
2022/10/19 10:19:12;;;;;;;4.10;3.60;;;;;;;15.79;100.00;98948.59;5014028;28;20219;-72
2022/10/19 10:21:53;;;;;;;4.00;3.67;;;;;;;15.65;100.00;98962.44;5014580;28;20701;-71
2022/10/19 10:24:22;;;;;;;3.87;3.50;;;;;;;15.70;100.00;98955.34;5013923;28;20206;-71
2022/10/19 10:26:52;;;;;;;3.80;3.30;;;;;;;15.70;100.00;98957.22;5014140;28;20230;-71
2022/10/19 10:29:21;;;;;;;5.50;3.60;;;;;;;15.74;100.00;98959.19;5014184;28;20213;-71
2022/10/19 10:31:51;;;;;;;3.67;3.37;;;;;;;15.71;100.00;98951.63;5013973;28;20237;-71
2022/10/19 10:34:41;;;;;;;4.23;3.30;;;;;;;15.71;100.00;98957.00;5013919;28;20198;-71
2022/10/19 10:37:18;;;;;;;4.07;3.67;;;;;;;15.77;100.00;98945.34;5013581;28;20657;-71
2022/10/19 10:39:44;;;;;;;3.73;3.43;;;;;;;15.86;100.00;98949.31;5013600;28;20201;-71
2022/10/19 10:42:17;;;;;;;3.87;3.27;;;;;;;15.89;100.00;98943.50;5013634;28;20207;-71
2022/10/19 10:44:53;;;;;;;5.73;3.20;;;;;;;16.05;100.00;98942.81;5013077;28;20265;-72
2022/10/19 10:47:20;;;;;;;3.50;3.20;;;;;;;16.11;100.00;98935.72;5012240;28;20210;-71
2022/10/19 10:49:57;;;;;;;4.30;3.70;;;;;;;16.08;100.00;98934.31;5013623;28;20222;-71
2022/10/19 10:52:26;;;;;;;3.97;3.57;;;;;;;16.24;100.00;98938.97;5013633;28;20193;-72
2022/10/19 10:55:09;;;;;;;4.67;3.43;;;;;;;16.41;100.00;98923.00;5013982;28;20207;-71
2022/10/19 10:57:41;;;;;;;3.13;2.83;;;;;;;16.53;100.00;98924.63;5014184;28;20195;-71
2022/10/19 11:00:15;;;;;;;4.07;3.50;;;;;;;16.50;100.00;98919.72;5012501;28;20237;-71
2022/10/19 11:02:46;;;;;;;3.17;2.90;;;;;;;16.40;100.00;98921.38;5012631;28;20209;-71
2022/10/19 11:05:33;;;;;;;5.20;2.97;;;;;;;16.58;100.00;98916.69;5013738;28;20232;-71
2022/10/19 11:08:18;;;;;;;6.43;2.80;;;;;;;16.71;100.00;98912.91;5012548;28;20214;-71
2022/10/19 11:10:57;;;;;;;4.43;3.00;;;;;;;16.63;100.00;98913.28;5013512;28;20280;-72
2022/10/19 11:13:23;;;;;;;3.57;2.30;;;;;;;16.64;100.00;98920.31;5013505;28;20194;-71
2022/10/19 11:16:02;;;;;;;3.30;3.00;;;;;;;16.64;100.00;98917.63;5013078;28;20210;-71
2022/10/19 11:18:41;;;;;;;3.03;2.77;;;;;;;16.88;100.00;98906.56;5013212;28;20558;-71
2022/10/19 11:21:25;;;;;;;3.57;3.00;;;;;;;16.66;100.00;98902.06;5012339;28;20658;-71
2022/10/19 11:24:01;;;;;;;3.30;3.00;;;;;;;16.59;100.00;98896.00;5011766;28;20197;-72
2022/10/19 11:26:40;;;;;;;4.20;2.67;;;;;;;16.69;100.00;98888.97;5012647;28;20681;-71
2022/10/19 11:29:06;;;;;;;2.80;2.60;;;;;;;16.72;100.00;98879.63;5013030;28;20206;-71
2022/10/19 11:31:32;;;;;;;3.10;2.80;;;;;;;16.75;100.00;98888.06;5013486;28;20238;-71